Wetterdaten: Woche 22.09.14 - 28.09.14 (KW39)
Datum Zeit Temp. Aussen +5cm Feuchte Auss Luftdruck Regen Sonnenschein Regendauer Solar Windben
22.09.2014 00:00 11,9 C 11,3 C 93 % 1020,1 hPa 0,0 l/m 0,00 h 0,00 h 0 W/m 10,4 km/h (2 Bft)
22.09.2014 01:00 12,5 C 11,5 C 94 % 1020,3 hPa 0,2 l/m 0,00 h 0,27 h 0 W/m 11,6 km/h (2 Bft)
22.09.2014 02:00 12,6 C 11,1 C 95 % 1020,4 hPa 0,0 l/m 0,00 h 0,00 h 0 W/m 9,8 km/h (2 Bft)
22.09.2014 03:00 11,9 C 10,0 C 95 % 1020,2 hPa 0,0 l/m 0,00 h 0,00 h 0 W/m 8,6 km/h (2 Bft)
22.09.2014 04:00 11,0 C 9,8 C 95 % 1020,0 hPa 0,2 l/m 0,00 h 0,10 h 0 W/m 12,3 km/h (3 Bft)
22.09.2014 05:00 11,1 C 10,3 C 95 % 1019,8 hPa 0,0 l/m 0,00 h 0,00 h 0 W/m 14,7 km/h (3 Bft)
22.09.2014 06:00 11,5 C 10,6 C 94 % 1019,7 hPa 0,0 l/m 0,00 h 0,00 h 0 W/m 14,8 km/h (3 Bft)
22.09.2014 07:00 11,6 C 10,4 C 91 % 1019,4 hPa 0,0 l/m 0,00 h 0,00 h 17 W/m 15,3 km/h (3 Bft)
22.09.2014 08:00 11,5 C 10,8 C 89 % 1019,6 hPa 0,0 l/m 0,00 h 0,00 h 42 W/m 12,8 km/h (3 Bft)
22.09.2014 09:00 12,4 C 12,0 C 87 % 1019,6 hPa 0,0 l/m 0,40 h 0,00 h 157 W/m 16,2 km/h (3 Bft)
22.09.2014 10:00 13,9 C 13,4 C 83 % 1019,2 hPa 0,0 l/m 0,60 h 0,00 h 247 W/m 18,8 km/h (3 Bft)
22.09.2014 11:00 15,4 C 14,7 C 76 % 1019,0 hPa 0,0 l/m 0,60 h 0,00 h 332 W/m 26,0 km/h (4 Bft)
22.09.2014 12:00 15,7 C 14,4 C 71 % 1019,0 hPa 0,0 l/m 0,30 h 0,10 h 269 W/m 28,5 km/h (4 Bft)
22.09.2014 13:00 13,3 C 11,5 C 86 % 1019,6 hPa 2,8 l/m 0,23 h 0,37 h 240 W/m 26,9 km/h (4 Bft)
22.09.2014 14:00 14,0 C 11,9 C 86 % 1019,5 hPa 1,2 l/m 0,77 h 0,17 h 465 W/m 25,1 km/h (4 Bft)
22.09.2014 15:00 15,9 C 12,9 C 69 % 1019,5 hPa 0,0 l/m 1,00 h 0,00 h 542 W/m 29,6 km/h (5 Bft)
22.09.2014 16:00 16,5 C 14,5 C 67 % 1019,6 hPa 0,0 l/m 0,83 h 0,00 h 360 W/m 23,4 km/h (4 Bft)
22.09.2014 17:00 16,6 C 14,5 C 66 % 1019,9 hPa 0,0 l/m 0,53 h 0,00 h 199 W/m 22,3 km/h (4 Bft)
22.09.2014 18:00 15,5 C 13,2 C 69 % 1020,2 hPa 0,0 l/m 0,03 h 0,00 h 55 W/m 18,0 km/h (3 Bft)
22.09.2014 19:00 14,1 C 11,5 C 75 % 1020,7 hPa 0,0 l/m 0,20 h 0,00 h 15 W/m 14,2 km/h (3 Bft)
22.09.2014 20:00 12,7 C 10,2 C 79 % 1021,2 hPa 0,0 l/m 0,00 h 0,00 h 0 W/m 8,7 km/h (2 Bft)
22.09.2014 21:00 11,3 C 8,7 C 82 % 1021,6 hPa 0,0 l/m 0,00 h 0,00 h 0 W/m 5,1 km/h (1 Bft)
22.09.2014 22:00 10,1 C 8,0 C 86 % 1021,8 hPa 0,0 l/m 0,00 h 0,00 h 0 W/m 4,7 km/h (1 Bft)
22.09.2014 23:00 9,2 C 7,5 C 89 % 1022,0 hPa 0,0 l/m 0,00 h 0,00 h 0 W/m 3,4 km/h (1 Bft)
23.09.2014 00:00 8,5 C 7,0 C 90 % 1022,3 hPa 0,0 l/m 0,00 h 0,00 h 0 W/m 2,4 km/h (1 Bft)
23.09.2014 01:00 8,0 C 6,7 C 91 % 1022,3 hPa 0,0 l/m 0,00 h 0,00 h 0 W/m 5,0 km/h (1 Bft)
23.09.2014 02:00 7,8 C 6,7 C 93 % 1021,9 hPa 0,0 l/m 0,00 h 0,00 h 0 W/m 6,0 km/h (2 Bft)
23.09.2014 03:00 7,6 C 6,5 C 94 % 1021,7 hPa 0,0 l/m 0,00 h 0,00 h 0 W/m 5,3 km/h (1 Bft)
23.09.2014 04:00 7,3 C 6,3 C 94 % 1021,5 hPa 0,0 l/m 0,00 h 0,00 h 0 W/m 7,6 km/h (2 Bft)
23.09.2014 05:00 7,1 C 6,3 C 95 % 1021,5 hPa 0,0 l/m 0,00 h 0,00 h 0 W/m 9,0 km/h (2 Bft)
23.09.2014 06:00 7,0 C 6,7 C 95 % 1021,7 hPa 0,0 l/m 0,00 h 0,00 h 0 W/m 7,0 km/h (2 Bft)
23.09.2014 07:00 7,5 C 7,5 C 96 % 1021,7 hPa 0,0 l/m 0,00 h 0,00 h 11 W/m 6,8 km/h (2 Bft)
23.09.2014 08:00 8,1 C 8,4 C 96 % 1022,0 hPa 0,0 l/m 0,00 h 0,00 h 56 W/m 4,8 km/h (1 Bft)
23.09.2014 09:00 9,1 C 9,3 C 97 % 1022,1 hPa 0,0 l/m 0,43 h 0,00 h 166 W/m 6,4 km/h (2 Bft)
23.09.2014 10:00 11,6 C 11,3 C 94 % 1022,2 hPa 0,0 l/m 1,00 h 0,00 h 442 W/m 9,0 km/h (2 Bft)
23.09.2014 11:00 15,5 C 13,6 C 76 % 1022,1 hPa 0,0 l/m 1,00 h 0,00 h 556 W/m 8,9 km/h (2 Bft)
23.09.2014 12:00 17,6 C 15,7 C 66 % 1021,7 hPa 0,0 l/m 0,90 h 0,00 h 689 W/m 10,0 km/h (2 Bft)
23.09.2014 13:00 19,3 C 17,0 C 58 % 1021,3 hPa 0,0 l/m 1,00 h 0,00 h 744 W/m 9,2 km/h (2 Bft)
23.09.2014 14:00 19,4 C 16,0 C 55 % 1020,7 hPa 0,0 l/m 0,70 h 0,00 h 472 W/m 10,8 km/h (2 Bft)
23.09.2014 15:00 18,2 C 16,1 C 58 % 1020,2 hPa 0,0 l/m 0,67 h 0,00 h 451 W/m 8,3 km/h (2 Bft)
23.09.2014 16:00 19,3 C 16,4 C 55 % 1019,5 hPa 0,0 l/m 0,87 h 0,00 h 412 W/m 9,8 km/h (2 Bft)
23.09.2014 17:00 18,5 C 15,3 C 56 % 1019,1 hPa 0,0 l/m 1,00 h 0,00 h 255 W/m 6,7 km/h (2 Bft)
23.09.2014 18:00 17,7 C 14,3 C 60 % 1018,8 hPa 0,0 l/m 0,58 h 0,00 h 97 W/m 6,0 km/h (2 Bft)
23.09.2014 19:00 15,6 C 11,2 C 69 % 1018,7 hPa 0,0 l/m 0,03 h 0,00 h 13 W/m 2,1 km/h (1 Bft)
23.09.2014 20:00 13,1 C 9,9 C 79 % 1018,6 hPa 0,0 l/m 0,00 h 0,00 h 0 W/m 3,4 km/h (1 Bft)
23.09.2014 21:00 11,7 C 9,4 C 85 % 1018,3 hPa 0,0 l/m 0,00 h 0,00 h 0 W/m 3,1 km/h (1 Bft)
23.09.2014 22:00 11,1 C 9,4 C 89 % 1017,7 hPa 0,0 l/m 0,00 h 0,00 h 0 W/m 3,3 km/h (1 Bft)
23.09.2014 23:00 10,7 C 9,4 C 90 % 1017,6 hPa 0,0 l/m 0,00 h 0,00 h 0 W/m 4,3 km/h (1 Bft)
24.09.2014 00:00 10,4 C 9,2 C 91 % 1017,3 hPa 0,0 l/m 0,00 h 0,00 h 0 W/m 3,9 km/h (1 Bft)
24.09.2014 01:00 10,2 C 8,3 C 90 % 1016,8 hPa 0,0 l/m 0,00 h 0,00 h 0 W/m 2,2 km/h (1 Bft)
24.09.2014 02:00 9,5 C 7,8 C 90 % 1016,5 hPa 0,0 l/m 0,00 h 0,00 h 0 W/m 3,9 km/h (1 Bft)
24.09.2014 03:00 9,2 C 7,8 C 92 % 1015,8 hPa 0,0 l/m 0,00 h 0,00 h 0 W/m 5,9 km/h (2 Bft)
24.09.2014 04:00 8,8 C 7,8 C 93 % 1015,1 hPa 0,0 l/m 0,00 h 0,00 h 0 W/m 6,9 km/h (2 Bft)
24.09.2014 05:00 8,7 C 7,8 C 94 % 1014,6 hPa 0,0 l/m 0,00 h 0,00 h 0 W/m 7,5 km/h (2 Bft)
24.09.2014 06:00 8,6 C 7,8 C 94 % 1014,2 hPa 0,0 l/m 0,00 h 0,00 h 0 W/m 7,9 km/h (2 Bft)
24.09.2014 07:00 8,6 C 7,8 C 94 % 1013,8 hPa 0,0 l/m 0,00 h 0,00 h 10 W/m 6,7 km/h (2 Bft)
24.09.2014 08:00 9,0 C 9,1 C 95 % 1013,4 hPa 0,0 l/m 0,00 h 0,00 h 52 W/m 10,2 km/h (2 Bft)
24.09.2014 09:00 10,1 C 10,2 C 93 % 1013,2 hPa 0,0 l/m 0,00 h 0,00 h 94 W/m 11,4 km/h (2 Bft)
24.09.2014 10:00 11,7 C 11,9 C 88 % 1012,9 hPa 0,0 l/m 0,20 h 0,00 h 198 W/m 9,4 km/h (2 Bft)
24.09.2014 11:00 13,8 C 13,8 C 83 % 1012,5 hPa 0,0 l/m 0,93 h 0,00 h 353 W/m 13,9 km/h (3 Bft)
24.09.2014 12:00 15,5 C 14,5 C 77 % 1012,2 hPa 0,0 l/m 0,15 h 0,00 h 239 W/m 17,4 km/h (3 Bft)
24.09.2014 13:00 15,5 C 14,7 C 77 % 1011,9 hPa 0,0 l/m 0,00 h 0,00 h 235 W/m 17,3 km/h (3 Bft)
24.09.2014 14:00 16,1 C 15,2 C 76 % 1011,4 hPa 0,0 l/m 0,40 h 0,00 h 283 W/m 23,9 km/h (4 Bft)
24.09.2014 15:00 15,5 C 12,8 C 81 % 1011,0 hPa 0,2 l/m 0,00 h 0,93 h 76 W/m 17,1 km/h (3 Bft)
24.09.2014 16:00 14,2 C 11,9 C 88 % 1010,9 hPa 0,6 l/m 0,00 h 0,63 h 53 W/m 16,3 km/h (3 Bft)
24.09.2014 17:00 13,5 C 11,8 C 92 % 1010,5 hPa 0,2 l/m 0,00 h 0,13 h 63 W/m 14,9 km/h (3 Bft)
24.09.2014 18:00 13,3 C 11,6 C 93 % 1010,6 hPa 0,0 l/m 0,00 h 0,00 h 29 W/m 17,6 km/h (3 Bft)
24.09.2014 19:00 12,7 C 10,6 C 93 % 1011,1 hPa 3,6 l/m 0,00 h 0,83 h 5 W/m 8,9 km/h (2 Bft)
24.09.2014 20:00 11,4 C 9,6 C 92 % 1011,4 hPa 1,2 l/m 0,00 h 0,77 h 0 W/m 10,1 km/h (2 Bft)
24.09.2014 21:00 10,8 C 9,5 C 94 % 1011,4 hPa 0,0 l/m 0,00 h 0,00 h 0 W/m 9,0 km/h (2 Bft)
24.09.2014 22:00 11,1 C 9,6 C 96 % 1011,8 hPa 0,0 l/m 0,00 h 0,00 h 0 W/m 8,9 km/h (2 Bft)
24.09.2014 23:00 10,9 C 9,6 C 96 % 1012,2 hPa 0,2 l/m 0,00 h 0,00 h 0 W/m 11,5 km/h (2 Bft)
25.09.2014 00:00 10,7 C 9,4 C 97 % 1012,4 hPa 0,0 l/m 0,00 h 0,00 h 0 W/m 11,3 km/h (2 Bft)
25.09.2014 01:00 10,7 C 9,7 C 97 % 1013,1 hPa 0,0 l/m 0,00 h 0,00 h 0 W/m 11,5 km/h (2 Bft)
25.09.2014 02:00 10,7 C 9,3 C 97 % 1013,8 hPa 0,0 l/m 0,00 h 0,00 h 0 W/m 8,8 km/h (2 Bft)
25.09.2014 03:00 10,2 C 8,9 C 97 % 1014,6 hPa 0,0 l/m 0,00 h 0,00 h 0 W/m 10,4 km/h (2 Bft)
25.09.2014 04:00 10,0 C 8,8 C 98 % 1014,9 hPa 0,0 l/m 0,00 h 0,00 h 0 W/m 8,5 km/h (2 Bft)
25.09.2014 05:00 9,7 C 8,4 C 98 % 1015,6 hPa 0,0 l/m 0,00 h 0,00 h 0 W/m 7,6 km/h (2 Bft)
25.09.2014 06:00 9,7 C 8,9 C 98 % 1015,9 hPa 0,0 l/m 0,00 h 0,00 h 0 W/m 9,1 km/h (2 Bft)
25.09.2014 07:00 10,3 C 9,5 C 98 % 1016,7 hPa 0,0 l/m 0,00 h 0,00 h 8 W/m 8,5 km/h (2 Bft)
25.09.2014 08:00 10,8 C 10,2 C 98 % 1017,5 hPa 0,4 l/m 0,13 h 0,17 h 49 W/m 8,3 km/h (2 Bft)
25.09.2014 09:00 11,8 C 11,2 C 99 % 1018,3 hPa 0,0 l/m 0,87 h 0,00 h 199 W/m 10,4 km/h (2 Bft)
25.09.2014 10:00 13,3 C 12,5 C 99 % 1018,9 hPa 0,0 l/m 1,00 h 0,00 h 409 W/m 13,1 km/h (3 Bft)
25.09.2014 11:00 15,1 C 13,9 C 96 % 1019,3 hPa 0,0 l/m 0,93 h 0,00 h 350 W/m 15,8 km/h (3 Bft)
25.09.2014 12:00 16,0 C 14,4 C 86 % 1019,7 hPa 0,0 l/m 0,40 h 0,00 h 287 W/m 17,8 km/h (3 Bft)
25.09.2014 13:00 17,0 C 15,7 C 79 % 1019,8 hPa 0,0 l/m 0,83 h 0,00 h 448 W/m 18,5 km/h (3 Bft)
25.09.2014 14:00 18,3 C 16,5 C 71 % 1019,8 hPa 0,0 l/m 0,80 h 0,00 h 466 W/m 21,3 km/h (4 Bft)
25.09.2014 15:00 18,8 C 16,8 C 67 % 1019,8 hPa 0,0 l/m 0,93 h 0,00 h 455 W/m 20,3 km/h (4 Bft)
25.09.2014 16:00 18,4 C 16,5 C 66 % 1019,7 hPa 0,0 l/m 0,87 h 0,00 h 261 W/m 21,3 km/h (4 Bft)
25.09.2014 17:00 17,4 C 15,2 C 69 % 1019,7 hPa 0,0 l/m 0,10 h 0,00 h 113 W/m 20,6 km/h (4 Bft)
25.09.2014 18:00 16,5 C 14,2 C 72 % 1019,7 hPa 0,0 l/m 0,00 h 0,00 h 46 W/m 14,8 km/h (3 Bft)
25.09.2014 19:00 15,7 C 13,5 C 76 % 1020,4 hPa 0,0 l/m 0,10 h 0,00 h 12 W/m 8,3 km/h (2 Bft)
25.09.2014 20:00 15,0 C 12,9 C 79 % 1020,8 hPa 0,0 l/m 0,00 h 0,07 h 0 W/m 6,7 km/h (2 Bft)
25.09.2014 21:00 14,4 C 12,7 C 82 % 1021,1 hPa 0,0 l/m 0,00 h 0,00 h 0 W/m 7,1 km/h (2 Bft)
25.09.2014 22:00 14,2 C 12,7 C 83 % 1021,5 hPa 0,0 l/m 0,00 h 0,00 h 0 W/m 7,4 km/h (2 Bft)
25.09.2014 23:00 13,9 C 12,3 C 83 % 1021,6 hPa 0,0 l/m 0,00 h 0,00 h 0 W/m 11,7 km/h (2 Bft)
26.09.2014 00:00 13,6 C 12,0 C 83 % 1021,8 hPa 0,0 l/m 0,00 h 0,00 h 0 W/m 12,1 km/h (2 Bft)
26.09.2014 01:00 13,0 C 11,5 C 84 % 1021,5 hPa 0,0 l/m 0,00 h 0,00 h 0 W/m 14,1 km/h (3 Bft)
26.09.2014 02:00 13,0 C 12,1 C 86 % 1021,5 hPa 0,0 l/m 0,00 h 0,00 h 0 W/m 16,9 km/h (3 Bft)
26.09.2014 03:00 13,6 C 12,2 C 86 % 1021,6 hPa 0,0 l/m 0,00 h 0,00 h 0 W/m 16,3 km/h (3 Bft)
26.09.2014 04:00 13,5 C 12,2 C 88 % 1021,6 hPa 0,0 l/m 0,00 h 0,00 h 0 W/m 14,3 km/h (3 Bft)
26.09.2014 05:00 13,4 C 12,2 C 89 % 1021,3 hPa 0,0 l/m 0,00 h 0,00 h 0 W/m 14,5 km/h (3 Bft)
26.09.2014 06:00 13,4 C 12,2 C 90 % 1021,4 hPa 0,0 l/m 0,00 h 0,00 h 0 W/m 17,5 km/h (3 Bft)
26.09.2014 07:00 13,4 C 12,2 C 90 % 1021,8 hPa 0,0 l/m 0,00 h 0,00 h 6 W/m 15,0 km/h (3 Bft)
26.09.2014 08:00 13,5 C 12,5 C 90 % 1022,1 hPa 0,0 l/m 0,00 h 0,00 h 34 W/m 18,0 km/h (3 Bft)
26.09.2014 09:00 13,9 C 13,0 C 90 % 1022,9 hPa 0,0 l/m 0,00 h 0,00 h 67 W/m 19,2 km/h (3 Bft)
26.09.2014 10:00 14,4 C 13,6 C 89 % 1023,3 hPa 0,0 l/m 0,00 h 0,00 h 109 W/m 18,7 km/h (3 Bft)
26.09.2014 11:00 15,2 C 14,4 C 88 % 1023,4 hPa 0,0 l/m 0,00 h 0,00 h 150 W/m 17,6 km/h (3 Bft)
26.09.2014 12:00 16,5 C 16,1 C 85 % 1023,4 hPa 0,0 l/m 0,52 h 0,00 h 303 W/m 20,3 km/h (4 Bft)
26.09.2014 13:00 17,7 C 16,6 C 82 % 1023,4 hPa 0,0 l/m 0,40 h 0,10 h 279 W/m 23,3 km/h (4 Bft)
26.09.2014 14:00 17,6 C 16,6 C 84 % 1023,3 hPa 0,0 l/m 0,13 h 0,10 h 223 W/m 19,4 km/h (3 Bft)
26.09.2014 15:00 18,2 C 17,0 C 82 % 1023,2 hPa 0,0 l/m 0,07 h 0,00 h 176 W/m 20,3 km/h (4 Bft)
26.09.2014 16:00 17,8 C 16,3 C 84 % 1023,4 hPa 0,0 l/m 0,03 h 0,00 h 117 W/m 18,8 km/h (3 Bft)
26.09.2014 17:00 17,1 C 14,7 C 89 % 1023,8 hPa 0,0 l/m 0,00 h 0,17 h 38 W/m 14,2 km/h (3 Bft)
26.09.2014 18:00 16,5 C 14,4 C 93 % 1024,0 hPa 0,0 l/m 0,00 h 0,00 h 33 W/m 10,8 km/h (2 Bft)
26.09.2014 19:00 16,3 C 14,4 C 94 % 1024,2 hPa 0,0 l/m 0,00 h 0,00 h 6 W/m 9,4 km/h (2 Bft)
26.09.2014 20:00 16,1 C 14,4 C 95 % 1024,7 hPa 0,0 l/m 0,00 h 0,00 h 0 W/m 7,8 km/h (2 Bft)
26.09.2014 21:00 15,8 C 14,0 C 95 % 1025,2 hPa 0,6 l/m 0,00 h 0,67 h 0 W/m 7,6 km/h (2 Bft)
26.09.2014 22:00 15,5 C 13,9 C 96 % 1025,3 hPa 0,0 l/m 0,00 h 0,00 h 0 W/m 11,3 km/h (2 Bft)
26.09.2014 23:00 15,1 C 13,3 C 96 % 1025,7 hPa 0,0 l/m 0,00 h 0,00 h 0 W/m 8,2 km/h (2 Bft)
27.09.2014 00:00 14,7 C 13,1 C 97 % 1026,0 hPa 0,0 l/m 0,00 h 0,00 h 0 W/m 4,9 km/h (1 Bft)
27.09.2014 01:00 14,1 C 12,2 C 97 % 1026,2 hPa 0,0 l/m 0,00 h 0,00 h 0 W/m 3,4 km/h (1 Bft)
27.09.2014 02:00 13,8 C 12,6 C 97 % 1026,4 hPa 0,0 l/m 0,00 h 0,00 h 0 W/m 2,2 km/h (1 Bft)
27.09.2014 03:00 13,7 C 12,8 C 97 % 1026,5 hPa 0,0 l/m 0,00 h 0,00 h 0 W/m 3,0 km/h (1 Bft)
27.09.2014 04:00 13,7 C 12,3 C 97 % 1026,5 hPa 0,0 l/m 0,00 h 0,00 h 0 W/m 2,2 km/h (1 Bft)
27.09.2014 05:00 13,8 C 12,8 C 97 % 1026,7 hPa 0,0 l/m 0,00 h 0,00 h 0 W/m 2,8 km/h (1 Bft)
27.09.2014 06:00 14,0 C 12,8 C 98 % 1026,7 hPa 0,0 l/m 0,00 h 0,00 h 0 W/m 3,0 km/h (1 Bft)
27.09.2014 07:00 13,9 C 12,8 C 98 % 1027,1 hPa 0,0 l/m 0,00 h 0,00 h 9 W/m 6,0 km/h (2 Bft)
27.09.2014 08:00 13,9 C 12,9 C 98 % 1027,6 hPa 0,0 l/m 0,00 h 0,00 h 33 W/m 5,6 km/h (1 Bft)
27.09.2014 09:00 14,4 C 13,7 C 98 % 1027,9 hPa 0,0 l/m 0,07 h 0,00 h 119 W/m 6,6 km/h (2 Bft)
27.09.2014 10:00 15,0 C 14,3 C 98 % 1028,3 hPa 0,0 l/m 0,00 h 0,00 h 134 W/m 7,4 km/h (2 Bft)
27.09.2014 11:00 15,7 C 15,2 C 98 % 1028,7 hPa 0,0 l/m 0,07 h 0,00 h 189 W/m 6,5 km/h (2 Bft)
27.09.2014 12:00 17,5 C 16,1 C 90 % 1028,7 hPa 0,0 l/m 0,73 h 0,00 h 465 W/m 7,6 km/h (2 Bft)
27.09.2014 13:00 19,7 C 17,4 C 79 % 1028,3 hPa 0,0 l/m 1,00 h 0,00 h 635 W/m 8,2 km/h (2 Bft)
27.09.2014 14:00 20,7 C 18,8 C 70 % 1028,0 hPa 0,0 l/m 1,00 h 0,00 h 620 W/m 11,0 km/h (2 Bft)
27.09.2014 15:00 20,0 C 17,9 C 65 % 1027,7 hPa 0,0 l/m 0,30 h 0,00 h 268 W/m 6,2 km/h (2 Bft)
27.09.2014 16:00 20,8 C 18,2 C 63 % 1027,4 hPa 0,0 l/m 1,00 h 0,00 h 392 W/m 7,3 km/h (2 Bft)
27.09.2014 17:00 20,4 C 17,4 C 63 % 1026,9 hPa 0,0 l/m 1,00 h 0,00 h 209 W/m 6,7 km/h (2 Bft)
27.09.2014 18:00 19,6 C 15,9 C 67 % 1026,5 hPa 0,0 l/m 0,28 h 0,00 h 57 W/m 7,4 km/h (2 Bft)
27.09.2014 19:00 18,1 C 13,5 C 75 % 1026,4 hPa 0,0 l/m 0,03 h 0,00 h 10 W/m 1,4 km/h (1 Bft)
27.09.2014 20:00 15,5 C 12,1 C 83 % 1026,4 hPa 0,0 l/m 0,00 h 0,00 h 0 W/m 0,1 km/h (0 Bft)
27.09.2014 21:00 13,8 C 11,3 C 88 % 1026,5 hPa 0,0 l/m 0,00 h 0,00 h 0 W/m 0,8 km/h (0 Bft)
27.09.2014 22:00 12,7 C 10,6 C 90 % 1026,5 hPa 0,0 l/m 0,00 h 0,00 h 0 W/m 1,0 km/h (0 Bft)
27.09.2014 23:00 11,8 C 10,0 C 91 % 1026,4 hPa 0,0 l/m 0,00 h 0,00 h 0 W/m 0,1 km/h (0 Bft)
28.09.2014 00:00 11,1 C 9,5 C 92 % 1026,2 hPa 0,0 l/m 0,00 h 0,00 h 0 W/m 0,5 km/h (0 Bft)
28.09.2014 01:00 10,5 C 9,4 C 93 % 1025,9 hPa 0,0 l/m 0,00 h 0,00 h 0 W/m 2,0 km/h (1 Bft)
28.09.2014 02:00 10,2 C 9,0 C 94 % 1025,6 hPa 0,0 l/m 0,00 h 0,00 h 0 W/m 3,2 km/h (1 Bft)
28.09.2014 03:00 10,2 C 9,0 C 95 % 1025,3 hPa 0,0 l/m 0,00 h 0,00 h 0 W/m 4,6 km/h (1 Bft)
28.09.2014 04:00 10,6 C 9,4 C 96 % 1025,0 hPa 0,0 l/m 0,00 h 0,00 h 0 W/m 7,2 km/h (2 Bft)
28.09.2014 05:00 10,8 C 9,4 C 97 % 1024,7 hPa 0,2 l/m 0,00 h 0,00 h 0 W/m 6,9 km/h (2 Bft)
28.09.2014 06:00 10,8 C 9,4 C 97 % 1024,1 hPa 0,0 l/m 0,00 h 0,00 h 0 W/m 8,0 km/h (2 Bft)
28.09.2014 07:00 10,7 C 9,4 C 97 % 1023,9 hPa 0,0 l/m 0,27 h 0,03 h 14 W/m 8,5 km/h (2 Bft)
28.09.2014 08:00 10,8 C 10,2 C 97 % 1023,8 hPa 0,0 l/m 1,00 h 0,00 h 114 W/m 8,1 km/h (2 Bft)
28.09.2014 09:00 12,3 C 12,1 C 98 % 1023,9 hPa 0,0 l/m 1,00 h 0,00 h 244 W/m 11,7 km/h (2 Bft)
28.09.2014 10:00 14,7 C 14,5 C 98 % 1023,9 hPa 0,0 l/m 1,00 h 0,00 h 345 W/m 15,0 km/h (3 Bft)
28.09.2014 11:00 17,0 C 16,0 C 86 % 1023,7 hPa 0,0 l/m 1,00 h 0,00 h 380 W/m 18,3 km/h (3 Bft)
28.09.2014 12:00 18,9 C 17,4 C 80 % 1023,1 hPa 0,0 l/m 0,98 h 0,00 h 451 W/m 18,2 km/h (3 Bft)
28.09.2014 13:00 20,2 C 18,3 C 77 % 1022,8 hPa 0,0 l/m 1,00 h 0,00 h 471 W/m 15,5 km/h (3 Bft)
28.09.2014 14:00 21,9 C 19,3 C 73 % 1022,4 hPa 0,0 l/m 1,00 h 0,00 h 542 W/m 14,9 km/h (3 Bft)
28.09.2014 15:00 23,0 C 19,9 C 70 % 1021,8 hPa 0,0 l/m 1,00 h 0,00 h 430 W/m 16,0 km/h (3 Bft)
28.09.2014 16:00 23,2 C 20,0 C 70 % 1021,3 hPa 0,0 l/m 1,00 h 0,00 h 295 W/m 13,0 km/h (3 Bft)
28.09.2014 17:00 22,7 C 19,2 C 73 % 1021,0 hPa 0,0 l/m 0,90 h 0,00 h 161 W/m 7,1 km/h (2 Bft)
28.09.2014 18:00 22,2 C 18,2 C 75 % 1020,8 hPa 0,0 l/m 0,55 h 0,00 h 69 W/m 9,4 km/h (2 Bft)
28.09.2014 19:00 20,4 C 15,9 C 80 % 1020,8 hPa 0,0 l/m 0,03 h 0,00 h 9 W/m 3,7 km/h (1 Bft)
28.09.2014 20:00 18,0 C 14,3 C 85 % 1021,0 hPa 0,0 l/m 0,00 h 0,00 h 0 W/m 0,8 km/h (0 Bft)
28.09.2014 21:00 16,7 C 13,9 C 90 % 1021,3 hPa 0,0 l/m 0,00 h 0,00 h 0 W/m 5,6 km/h (1 Bft)
28.09.2014 22:00 16,2 C 13,8 C 93 % 1021,6 hPa 0,0 l/m 0,00 h 0,00 h 0 W/m 7,1 km/h (2 Bft)
28.09.2014 23:00 15,8 C 13,4 C 95 % 1021,7 hPa 0,0 l/m 0,00 h 0,00 h 0 W/m 6,6 km/h (2 Bft)
Min-Datum _ 23.09.14 23.09.14 23.09.14 24.09.14 - - - - 23.09.14
_ Min-Zeit 05:54 03:36 14:28 17:44 - - - - 08:12
Minimum _ 6,9 C 6,1 C 53 % 1010,3 hPa - - - - 0,0 km/h (0 Bft)
Max-Datum _ 28.09.14 28.09.14 25.09.14 27.09.14 24.09.14 22.09.14 22.09.14 23.09.14 22.09.14
_ Max-Zeit 15:48 14:42 08:18 11:22 19:48 09:34 01:22 12:40 13:12
Maximum _ 23,3 C 20,0 C 99 % 1028,8 hPa 3,6 l/m 0,03 h 0,03 h 851 W/m 58,6 km/h
N-NW (7 Bft)
Durchschnitt _ 13,9 C 12,4 C 86 % 1020,7 hPa #11,6 l/m #39:42 h #5:36 h 223 W/m 10,6 km/h (2 Bft)
© 2014 W. Hausmann